Timeline UpdatesTrip UpdatesNews PostsPvt PostsTravel TipsAdmin PostsConv PostsFollowed PostsChat RequestsBlog PostsPNR Posts

Disclaimer
Search
 
 
Sat Aug 2, 2014 14:05:43 ISTHomeTrainsΣChainsAtlasPNRForumGalleryNewsFAQTripsMembersLoginFeedback
No Recent News for this Train
Other Trains in the News **new
Latest...
.
Wed Apr 17, 2013 (06:13PM)
⇐ Return Journey: Train# 16359

16360/Patna - Ernakulam Express

Mar 06 2014 (1:03PM)
Change Departure Station:
Change Arrival Station:
Post a Train Travel TipPost a Train Travel Tip **new
Post a Comment/Question/Picture/VideoPost a Comment/Question/Picture/Video
Pantry/Catering
✓ Pantry Car Avbl
✓ Catering Avbl
Loco/Rake Reversals
ALD/Allahabad Junction (10);
RSA - Rake Sharing
Rake/Coach Composition
Eng-GS-GS-GS-S1-S2-S3-S4-S5-S6-S7-S8-S9-PC-S10-S11-B1-B2-A1-GS-GS-GS; (reference entry# 725714-3 ); Following is pre-updation information... ; 2A-1, 3A-2, SL-11, GN-4, PC-1, SLR/D-2= 21 Coach Rake.
Loco
News    PNR    Forum    Time-Table    Availability    Fare Chart    Map    Arr/Dep History    Trips    Gallery    ΣChains    X/O    Timeline    
Travel Time: 41h 20m    31 halts    Distance: 2307 km    Avg Speed: 55 km/hr
Type: Mail/Express
Zone: SR/Southern
Departs @ 16:30 (Avg 2h 4m late)
Platform# 5
  T    
Patna Junction/PNBE 
Arrives @ 09:50 +2 nights (Avg 2h 46m late)
Platform# ???
    T  
Tirupati Main/TPTY 

31 halts. 332 intermediate Stations between Patna Junction and Tirupati Main

Show ALL intermediate Stations  Show Old Time-Table

#CodeStation NameX/OArrivesAvgDepartsAvgHaltPFDay#KmSpeedElevZoneAddress
1PNBE»Patna Junction (10)»  -16:30+2:04510.07057mECRPatna 800001, Bihar
2ARAAra Junction (3)  17:12+2:2517:14+2:272m--149.09363mECRarrah( 06182-233411), Bihar
3BXRBuxar (3)X  17:58+2:4418:00+2:462m--1117.44867mECRBuxar, Bihar
4MGSMughal Sarai Junction (8)X  19:57+2:1420:12+2:1415m11211.42383mECRMughalsarai 232101, Uttar Pradesh
5BSBVaranasi Junction (9)  20:55+2:1221:15+2:1620m--1227.86982mNRVaranasi 221002, Uttar Pradesh
6GYNGyanpur Road  22:18+2:3422:20+2:352m--1300.22690mNERBhadohi District, Uttar Pradesh
7ALYAllahabad City (5)  00:15+1:5100:17+1:592m--2349.512101mNERAllahabad(0532-1072), Uttar Pradesh
8ALDAllahabad Junction (10)X00:30+2:0400:55+2:2425m82352.063100mNCRAllahabad 211003, Uttar Pradesh
9STASatna Junction (3)X  03:45+2:1903:55+2:2010m12529.291322mWCRSatna, Madhya Pradesh
10KTEKatni Junction (6)  05:00+2:4605:05+2:465m--2627.668387mWCRKatni, Madhya Pradesh
11JBPJabalpur Junction (4)X  06:25+2:5806:35+3:0410m12718.263416mWCRJabalpur, Madhya Pradesh
12ETItarsi Junction (7)  10:30+2:4110:45+2:5215m52963.467329mWCRItarsi 461111, Madhya Pradesh
13GDYAGhoradongri (3)  11:48+2:4511:49+2:461m--21033.860410mCRBetul, Madhya Pradesh
14BZUBetul (3)X  12:25+3:0712:28+3:063m--21069.763644mCRBetul, Madhya Pradesh
15NRKRNarkher Junction (3)X14:08+3:0514:10+3:052m--21174.686411mCRNarkher, Maharashtra
16NGPNagpur Junction (8)  15:10+3:3115:20+3:3510m221260.676314mCRNagpur 440001, Maharashtra
17SEGMSewagram Junction (5)  16:20+3:4916:21+3:501m--21336.874279mCRWardha, Maharashtra
18CDChandrapur Maharashtra (3)X  17:57+2:4818:00+2:463m--21455.314194mCRChandrapur 442401, Maharashtra
19BPQBalharshah Junction (5)  19:00+3:2219:20+3:1120m--21469.1107188mCRBallarpur. Ph : 07172 - 240341, Maharashtra
20SKZRSirpur Kaghaznagar (3)  19:59+3:4220:00+3:421m221538.980181mSCRAdilabad Dist., Telangana
21BPABellampalli (3)  20:29+3:4820:30+3:481m221577.3132205mSCRTel:.08735 223298, Telangana
22MCIManchiryal (3)  20:39+3:5520:40+3:561m221597.292159mSCRAdilabad Dist., Telangana
23RDMRamagundam (3)  20:49+4:0420:50+4:041m221610.943170mSCRKarimnagar Dist. Ph : 08728 - 255237, Telangana
24WLWarangal (3)  23:10+3:0023:12+2:592m121712.178271mSCRWarangal., Telangana
25KMTKhammam (2)  00:35+2:0100:37+2:012m131819.745118mSCRKhammam 507001, Telangana
26BZAVijayawada Junction (10)X  02:50+2:5403:00+2:5710m--31920.06924mSCRVijayawada 520001, Andhra Pradesh
27TELTenali Junction (5)  03:27+2:5603:28+2:571m331951.37616mSCRTel: 08644-227834, Andhra Pradesh
28OGLOngole (3)  04:52+2:3504:53+2:361m332058.37412mSCROngole, Andhra Pradesh
29NLRNellore (4)  06:28+4:1106:29+4:111m332175.12721mSCRNellore, Andhra Pradesh
30GDRGudur Junction (3)  07:53+2:3107:55+2:302m132213.58419mSCRGudur, Andhra Pradesh
31KHTSri Kalahasti (2)  08:38+2:3208:39+2:331m132273.73968mSCRChittoor District, Andhra Pradesh
32RURenigunta Junction (5)  09:15+2:3209:25+2:3310m--32296.924113mSCRChittoor District, Andhra Pradesh
33TPTY•Tirupati Main (5)•  09:50+2:4610:00+2:4310m--32306.858150mSCRChittoor Distt, Andhra Pradesh
34CTOChittoor (3)X  11:14+2:2411:15+2:261m--32378.725305mSCR517001., Andhra Pradesh
35KPDKatpadi Junction (5)X  12:35+2:1912:40+2:175m432411.867213mSRVellore 632007, Tamil Nadu
36JTJJolarpettai Junction (5)  13:55+2:0714:00+2:075m--32495.685405mSRJolarpettai, Tamil Nadu
37SASalem Junction (6)X  15:25+1:5715:30+1:575m--32615.853283mSRSalem, Tamil Nadu
38EDErode Junction (4)X  16:40+2:3216:50+2:4010m232677.570175mSRErode ph.no: 0424-2256111, Tamil Nadu
39TUPTiruppur (2)  17:33+2:3517:35+2:342m132727.543305mSRTiruppur. Ph:0421-2200450, Tamil Nadu
40CBECoimbatore Main Junction (6)  18:45+2:2018:50+2:195m--32778.139416mSRCoimbatore 641001, Tamil Nadu
41PGTPalakkad Junction (4)X  20:15+1:2920:20+1:285m632833.87384mSRPalghat Tel: 0491 2555231, Kerala
42TCRThrissur (4)X  21:22+2:2321:25+2:223m132909.3566mSRThrissur Tel: 0487 2423150, Kerala
43AWYAluva (3)X  22:23+2:2522:25+2:252m--32963.92312mSRPh: 0484-2624141, Kerala
44ERSErnakulam Junction (South) (6)  23:15+1:30---32983.3-3mSRErnakulam 682016, Kerala
Scroll to Top
Scroll to Bottom